sensor_id;sensor_type;location;lat;lon;timestamp;temperature;humidity
3086;DHT22;52812;48.960;9.108;2022-10-15T00:01:13;13.90;99.90
3086;DHT22;52812;48.960;9.108;2022-10-15T00:03:41;13.90;99.90
3086;DHT22;52812;48.960;9.108;2022-10-15T00:06:09;13.90;99.90
3086;DHT22;52812;48.960;9.108;2022-10-15T00:08:36;14.00;99.90
3086;DHT22;52812;48.960;9.108;2022-10-15T00:11:07;14.00;99.90
3086;DHT22;52812;48.960;9.108;2022-10-15T00:13:33;14.00;99.90
3086;DHT22;52812;48.960;9.108;2022-10-15T00:15:59;14.00;99.90
3086;DHT22;52812;48.960;9.108;2022-10-15T00:18:25;14.00;99.90
3086;DHT22;52812;48.960;9.108;2022-10-15T00:20:51;14.00;99.90
3086;DHT22;52812;48.960;9.108;2022-10-15T00:23:17;14.00;99.90
3086;DHT22;52812;48.960;9.108;2022-10-15T00:25:42;14.00;99.90
3086;DHT22;52812;48.960;9.108;2022-10-15T00:28:08;14.00;99.90
3086;DHT22;52812;48.960;9.108;2022-10-15T00:30:33;14.00;99.90
3086;DHT22;52812;48.960;9.108;2022-10-15T00:32:59;14.00;99.90
3086;DHT22;52812;48.960;9.108;2022-10-15T00:35:24;14.00;99.90
3086;DHT22;52812;48.960;9.108;2022-10-15T00:37:50;14.00;99.90
3086;DHT22;52812;48.960;9.108;2022-10-15T00:40:16;14.10;99.90
3086;DHT22;52812;48.960;9.108;2022-10-15T00:42:41;14.10;99.90
3086;DHT22;52812;48.960;9.108;2022-10-15T00:45:13;14.10;99.90
3086;DHT22;52812;48.960;9.108;2022-10-15T00:47:44;14.10;99.90
3086;DHT22;52812;48.960;9.108;2022-10-15T00:50:20;14.10;99.90
3086;DHT22;52812;48.960;9.108;2022-10-15T00:53:04;14.10;99.90
3086;DHT22;52812;48.960;9.108;2022-10-15T00:55:40;14.10;99.90
3086;DHT22;52812;48.960;9.108;2022-10-15T00:58:10;14.10;99.90
3086;DHT22;52812;48.960;9.108;2022-10-15T01:00:37;14.10;99.90
3086;DHT22;52812;48.960;9.108;2022-10-15T01:03:02;14.20;99.90
3086;DHT22;52812;48.960;9.108;2022-10-15T01:05:28;14.20;99.90
3086;DHT22;52812;48.960;9.108;2022-10-15T01:07:54;14.20;99.90
3086;DHT22;52812;48.960;9.108;2022-10-15T01:10:20;14.20;99.90
3086;DHT22;52812;48.960;9.108;2022-10-15T01:13:06;14.20;99.90
3086;DHT22;52812;48.960;9.108;2022-10-15T01:15:45;14.20;99.90
3086;DHT22;52812;48.960;9.108;2022-10-15T01:18:49;14.20;99.90
3086;DHT22;52812;48.960;9.108;2022-10-15T01:21:23;14.20;99.90
3086;DHT22;52812;48.960;9.108;2022-10-15T01:24:11;14.20;99.90
3086;DHT22;52812;48.960;9.108;2022-10-15T01:29:32;14.30;99.90
3086;DHT22;52812;48.960;9.108;2022-10-15T01:32:16;14.30;99.90
3086;DHT22;52812;48.960;9.108;2022-10-15T01:37:26;14.30;99.90
3086;DHT22;52812;48.960;9.108;2022-10-15T01:40:01;14.30;99.90
3086;DHT22;52812;48.960;9.108;2022-10-15T01:42:56;14.30;99.90
3086;DHT22;52812;48.960;9.108;2022-10-15T01:45:29;14.30;99.90
3086;DHT22;52812;48.960;9.108;2022-10-15T01:48:01;14.30;99.90
3086;DHT22;52812;48.960;9.108;2022-10-15T01:50:30;14.20;99.90
3086;DHT22;52812;48.960;9.108;2022-10-15T01:52:57;14.30;99.90
3086;DHT22;52812;48.960;9.108;2022-10-15T01:55:25;14.30;99.90
3086;DHT22;52812;48.960;9.108;2022-10-15T01:57:51;14.30;99.90
3086;DHT22;52812;48.960;9.108;2022-10-15T02:00:19;14.30;99.90
3086;DHT22;52812;48.960;9.108;2022-10-15T02:02:44;14.30;99.90
3086;DHT22;52812;48.960;9.108;2022-10-15T02:05:15;14.30;99.90
3086;DHT22;52812;48.960;9.108;2022-10-15T02:07:52;14.30;99.90
3086;DHT22;52812;48.960;9.108;2022-10-15T02:10:50;14.40;99.90
3086;DHT22;52812;48.960;9.108;2022-10-15T02:13:31;14.40;99.90
3086;DHT22;52812;48.960;9.108;2022-10-15T02:16:01;14.30;99.90
3086;DHT22;52812;48.960;9.108;2022-10-15T02:18:41;14.30;99.90
3086;DHT22;52812;48.960;9.108;2022-10-15T02:21:15;14.30;99.90
3086;DHT22;52812;48.960;9.108;2022-10-15T02:26:14;14.40;99.90
3086;DHT22;52812;48.960;9.108;2022-10-15T02:28:43;14.30;99.90
3086;DHT22;52812;48.960;9.108;2022-10-15T02:31:11;14.30;99.90
3086;DHT22;52812;48.960;9.108;2022-10-15T02:33:38;14.30;99.90
3086;DHT22;52812;48.960;9.108;2022-10-15T02:36:05;14.40;99.90
3086;DHT22;52812;48.960;9.108;2022-10-15T02:38:32;14.40;99.90
3086;DHT22;52812;48.960;9.108;2022-10-15T02:40:59;14.40;99.90
3086;DHT22;52812;48.960;9.108;2022-10-15T02:43:25;14.40;99.90
3086;DHT22;52812;48.960;9.108;2022-10-15T02:45:50;14.40;99.90
3086;DHT22;52812;48.960;9.108;2022-10-15T02:48:16;14.40;99.90
3086;DHT22;52812;48.960;9.108;2022-10-15T02:50:42;14.40;99.90
3086;DHT22;52812;48.960;9.108;2022-10-15T02:53:08;14.40;99.90
3086;DHT22;52812;48.960;9.108;2022-10-15T02:55:34;14.40;99.90
3086;DHT22;52812;48.960;9.108;2022-10-15T02:57:59;14.40;99.90
3086;DHT22;52812;48.960;9.108;2022-10-15T03:00:25;14.30;99.90
3086;DHT22;52812;48.960;9.108;2022-10-15T03:02:50;14.30;99.90
3086;DHT22;52812;48.960;9.108;2022-10-15T03:05:16;14.40;99.90
3086;DHT22;52812;48.960;9.108;2022-10-15T03:07:41;14.40;99.90
3086;DHT22;52812;48.960;9.108;2022-10-15T03:10:07;14.40;99.90
3086;DHT22;52812;48.960;9.108;2022-10-15T03:12:32;14.30;99.90
3086;DHT22;52812;48.960;9.108;2022-10-15T03:14:58;14.40;99.90
3086;DHT22;52812;48.960;9.108;2022-10-15T03:17:24;14.40;99.90
3086;DHT22;52812;48.960;9.108;2022-10-15T03:19:49;14.40;99.90
3086;DHT22;52812;48.960;9.108;2022-10-15T03:22:15;14.40;99.90
3086;DHT22;52812;48.960;9.108;2022-10-15T03:24:40;14.40;99.90
3086;DHT22;52812;48.960;9.108;2022-10-15T03:27:06;14.40;99.90
3086;DHT22;52812;48.960;9.108;2022-10-15T03:29:31;14.40;99.90
3086;DHT22;52812;48.960;9.108;2022-10-15T03:31:58;14.40;99.90
3086;DHT22;52812;48.960;9.108;2022-10-15T03:34:23;14.40;99.90
3086;DHT22;52812;48.960;9.108;2022-10-15T03:36:49;14.40;99.90
3086;DHT22;52812;48.960;9.108;2022-10-15T03:39:14;14.40;99.90
3086;DHT22;52812;48.960;9.108;2022-10-15T03:41:40;14.50;99.90
3086;DHT22;52812;48.960;9.108;2022-10-15T03:44:06;14.50;99.90
3086;DHT22;52812;48.960;9.108;2022-10-15T03:46:33;14.50;99.90
3086;DHT22;52812;48.960;9.108;2022-10-15T03:48:58;14.50;99.90
3086;DHT22;52812;48.960;9.108;2022-10-15T03:51:24;14.50;99.90
3086;DHT22;52812;48.960;9.108;2022-10-15T03:53:50;14.50;99.90
3086;DHT22;52812;48.960;9.108;2022-10-15T03:56:15;14.50;99.90
3086;DHT22;52812;48.960;9.108;2022-10-15T03:58:41;14.50;99.90
3086;DHT22;52812;48.960;9.108;2022-10-15T04:01:14;14.50;99.90
3086;DHT22;52812;48.960;9.108;2022-10-15T04:03:40;14.50;99.90
3086;DHT22;52812;48.960;9.108;2022-10-15T04:06:06;14.60;99.90
3086;DHT22;52812;48.960;9.108;2022-10-15T04:08:32;14.50;99.90
3086;DHT22;52812;48.960;9.108;2022-10-15T04:10:58;14.60;99.90
3086;DHT22;52812;48.960;9.108;2022-10-15T04:13:27;14.60;99.90
3086;DHT22;52812;48.960;9.108;2022-10-15T04:15:53;14.70;99.90
3086;DHT22;52812;48.960;9.108;2022-10-15T04:18:19;14.70;99.90
3086;DHT22;52812;48.960;9.108;2022-10-15T04:20:47;14.80;99.90
3086;DHT22;52812;48.960;9.108;2022-10-15T04:23:13;14.80;99.90
3086;DHT22;52812;48.960;9.108;2022-10-15T04:25:38;14.80;99.90
3086;DHT22;52812;48.960;9.108;2022-10-15T04:28:04;14.90;99.90
3086;DHT22;52812;48.960;9.108;2022-10-15T04:30:30;15.00;99.90
3086;DHT22;52812;48.960;9.108;2022-10-15T04:32:55;15.10;99.90
3086;DHT22;52812;48.960;9.108;2022-10-15T04:35:21;15.10;99.90
3086;DHT22;52812;48.960;9.108;2022-10-15T04:37:46;15.20;99.90
3086;DHT22;52812;48.960;9.108;2022-10-15T04:40:12;15.10;99.90
3086;DHT22;52812;48.960;9.108;2022-10-15T04:42:38;15.20;99.90
3086;DHT22;52812;48.960;9.108;2022-10-15T04:45:04;15.20;99.90
3086;DHT22;52812;48.960;9.108;2022-10-15T04:47:30;15.20;99.90
3086;DHT22;52812;48.960;9.108;2022-10-15T04:49:56;15.10;99.90
3086;DHT22;52812;48.960;9.108;2022-10-15T04:52:21;15.10;99.90
3086;DHT22;52812;48.960;9.108;2022-10-15T04:54:47;15.10;99.90
3086;DHT22;52812;48.960;9.108;2022-10-15T04:57:13;15.20;99.90
3086;DHT22;52812;48.960;9.108;2022-10-15T04:59:38;15.20;99.90
3086;DHT22;52812;48.960;9.108;2022-10-15T05:02:04;15.20;99.90
3086;DHT22;52812;48.960;9.108;2022-10-15T05:04:30;15.20;99.90
3086;DHT22;52812;48.960;9.108;2022-10-15T05:06:55;15.10;99.90
3086;DHT22;52812;48.960;9.108;2022-10-15T05:09:21;15.10;99.90
3086;DHT22;52812;48.960;9.108;2022-10-15T05:11:46;15.10;99.90
3086;DHT22;52812;48.960;9.108;2022-10-15T05:14:12;15.10;99.90
3086;DHT22;52812;48.960;9.108;2022-10-15T05:16:38;15.10;99.90
3086;DHT22;52812;48.960;9.108;2022-10-15T05:19:05;15.10;99.90
3086;DHT22;52812;48.960;9.108;2022-10-15T05:21:32;15.00;99.90
3086;DHT22;52812;48.960;9.108;2022-10-15T05:23:58;15.10;99.90
3086;DHT22;52812;48.960;9.108;2022-10-15T05:26:25;15.00;99.90
3086;DHT22;52812;48.960;9.108;2022-10-15T05:28:51;15.10;99.90
3086;DHT22;52812;48.960;9.108;2022-10-15T05:31:19;15.10;99.90
3086;DHT22;52812;48.960;9.108;2022-10-15T05:33:46;15.10;99.90
3086;DHT22;52812;48.960;9.108;2022-10-15T05:36:13;15.00;99.90
3086;DHT22;52812;48.960;9.108;2022-10-15T05:38:45;15.10;99.90
3086;DHT22;52812;48.960;9.108;2022-10-15T05:41:11;15.00;99.90
3086;DHT22;52812;48.960;9.108;2022-10-15T05:43:37;15.00;99.90
3086;DHT22;52812;48.960;9.108;2022-10-15T05:46:03;15.10;99.90
3086;DHT22;52812;48.960;9.108;2022-10-15T05:48:28;15.10;99.90
3086;DHT22;52812;48.960;9.108;2022-10-15T05:51:03;15.10;99.90
3086;DHT22;52812;48.960;9.108;2022-10-15T05:53:32;15.10;99.90
3086;DHT22;52812;48.960;9.108;2022-10-15T05:55:58;15.10;99.90
3086;DHT22;52812;48.960;9.108;2022-10-15T05:58:27;15.10;99.90
3086;DHT22;52812;48.960;9.108;2022-10-15T06:00:58;15.10;99.90
3086;DHT22;52812;48.960;9.108;2022-10-15T06:03:25;15.00;99.90
3086;DHT22;52812;48.960;9.108;2022-10-15T06:05:51;15.00;99.90
3086;DHT22;52812;48.960;9.108;2022-10-15T06:08:16;15.00;99.90
3086;DHT22;52812;48.960;9.108;2022-10-15T06:10:42;15.00;99.90
3086;DHT22;52812;48.960;9.108;2022-10-15T06:13:09;15.00;99.90
3086;DHT22;52812;48.960;9.108;2022-10-15T06:15:41;15.10;99.90
3086;DHT22;52812;48.960;9.108;2022-10-15T06:18:08;15.10;99.90
3086;DHT22;52812;48.960;9.108;2022-10-15T06:20:34;15.10;99.90
3086;DHT22;52812;48.960;9.108;2022-10-15T06:23:01;15.10;99.90
3086;DHT22;52812;48.960;9.108;2022-10-15T06:25:26;15.10;99.90
3086;DHT22;52812;48.960;9.108;2022-10-15T06:27:52;15.10;99.90
3086;DHT22;52812;48.960;9.108;2022-10-15T06:30:19;15.10;99.90
3086;DHT22;52812;48.960;9.108;2022-10-15T06:32:52;15.20;99.90
3086;DHT22;52812;48.960;9.108;2022-10-15T06:35:19;15.20;99.90
3086;DHT22;52812;48.960;9.108;2022-10-15T06:37:44;15.20;99.90
3086;DHT22;52812;48.960;9.108;2022-10-15T06:40:11;15.20;99.90
3086;DHT22;52812;48.960;9.108;2022-10-15T06:42:38;15.20;99.90
3086;DHT22;52812;48.960;9.108;2022-10-15T06:45:04;15.20;99.90
3086;DHT22;52812;48.960;9.108;2022-10-15T06:47:30;15.20;99.90
3086;DHT22;52812;48.960;9.108;2022-10-15T06:49:55;15.20;99.90
3086;DHT22;52812;48.960;9.108;2022-10-15T06:52:21;15.20;99.90
3086;DHT22;52812;48.960;9.108;2022-10-15T06:54:48;15.20;99.90
3086;DHT22;52812;48.960;9.108;2022-10-15T06:57:14;15.20;99.90
3086;DHT22;52812;48.960;9.108;2022-10-15T06:59:39;15.20;99.90
3086;DHT22;52812;48.960;9.108;2022-10-15T07:02:05;15.30;99.90
3086;DHT22;52812;48.960;9.108;2022-10-15T07:04:30;15.20;99.90
3086;DHT22;52812;48.960;9.108;2022-10-15T07:06:56;15.20;99.90
3086;DHT22;52812;48.960;9.108;2022-10-15T07:09:21;15.20;99.90
3086;DHT22;52812;48.960;9.108;2022-10-15T07:11:47;15.30;99.90
3086;DHT22;52812;48.960;9.108;2022-10-15T07:14:13;15.30;99.90
3086;DHT22;52812;48.960;9.108;2022-10-15T07:16:38;15.30;99.90
3086;DHT22;52812;48.960;9.108;2022-10-15T07:19:04;15.40;99.90
3086;DHT22;52812;48.960;9.108;2022-10-15T07:21:30;15.40;99.90
3086;DHT22;52812;48.960;9.108;2022-10-15T07:23:56;15.50;99.90
3086;DHT22;52812;48.960;9.108;2022-10-15T07:26:21;15.50;99.90
3086;DHT22;52812;48.960;9.108;2022-10-15T07:28:47;15.60;99.90
3086;DHT22;52812;48.960;9.108;2022-10-15T07:31:12;15.60;99.90
3086;DHT22;52812;48.960;9.108;2022-10-15T07:33:40;15.70;99.90
3086;DHT22;52812;48.960;9.108;2022-10-15T07:36:08;15.80;99.90
3086;DHT22;52812;48.960;9.108;2022-10-15T07:38:34;15.80;99.90
3086;DHT22;52812;48.960;9.108;2022-10-15T07:41:01;15.90;99.90
3086;DHT22;52812;48.960;9.108;2022-10-15T07:43:27;15.90;99.90
3086;DHT22;52812;48.960;9.108;2022-10-15T07:45:53;15.90;99.90
3086;DHT22;52812;48.960;9.108;2022-10-15T07:48:19;15.90;99.90
3086;DHT22;52812;48.960;9.108;2022-10-15T07:50:45;15.90;99.90
3086;DHT22;52812;48.960;9.108;2022-10-15T07:53:10;16.00;99.90
3086;DHT22;52812;48.960;9.108;2022-10-15T07:55:36;16.00;99.90
3086;DHT22;52812;48.960;9.108;2022-10-15T07:58:02;16.00;99.90
3086;DHT22;52812;48.960;9.108;2022-10-15T08:00:31;16.00;99.90
3086;DHT22;52812;48.960;9.108;2022-10-15T08:02:57;16.10;99.90
3086;DHT22;52812;48.960;9.108;2022-10-15T08:05:22;16.10;99.90
3086;DHT22;52812;48.960;9.108;2022-10-15T08:07:48;16.10;99.90
3086;DHT22;52812;48.960;9.108;2022-10-15T08:10:14;16.20;99.90
3086;DHT22;52812;48.960;9.108;2022-10-15T08:12:39;16.30;99.90
3086;DHT22;52812;48.960;9.108;2022-10-15T08:15:07;16.30;99.90
3086;DHT22;52812;48.960;9.108;2022-10-15T08:17:32;16.30;99.90
3086;DHT22;52812;48.960;9.108;2022-10-15T08:19:58;16.30;99.90
3086;DHT22;52812;48.960;9.108;2022-10-15T08:22:23;16.30;99.90
3086;DHT22;52812;48.960;9.108;2022-10-15T08:24:49;16.40;99.90
3086;DHT22;52812;48.960;9.108;2022-10-15T08:27:14;16.40;99.90
3086;DHT22;52812;48.960;9.108;2022-10-15T08:29:40;16.50;99.90
3086;DHT22;52812;48.960;9.108;2022-10-15T08:32:06;16.50;99.90
3086;DHT22;52812;48.960;9.108;2022-10-15T08:34:32;16.50;99.90
3086;DHT22;52812;48.960;9.108;2022-10-15T08:37:24;16.50;99.90
3086;DHT22;52812;48.960;9.108;2022-10-15T08:40:09;16.50;99.90
3086;DHT22;52812;48.960;9.108;2022-10-15T08:42:39;16.50;99.90
3086;DHT22;52812;48.960;9.108;2022-10-15T08:48:37;16.40;99.90
3086;DHT22;52812;48.960;9.108;2022-10-15T08:51:24;16.30;99.90
3086;DHT22;52812;48.960;9.108;2022-10-15T09:04:05;16.40;99.90
3086;DHT22;52812;48.960;9.108;2022-10-15T09:06:40;16.50;99.90
3086;DHT22;52812;48.960;9.108;2022-10-15T09:09:34;16.50;99.90
3086;DHT22;52812;48.960;9.108;2022-10-15T09:15:26;16.50;99.90
3086;DHT22;52812;48.960;9.108;2022-10-15T09:17:53;16.50;99.90
3086;DHT22;52812;48.960;9.108;2022-10-15T09:20:32;16.50;99.90
3086;DHT22;52812;48.960;9.108;2022-10-15T09:22:57;16.60;99.90
3086;DHT22;52812;48.960;9.108;2022-10-15T09:25:24;16.70;99.90
3086;DHT22;52812;48.960;9.108;2022-10-15T09:27:51;16.90;99.90
3086;DHT22;52812;48.960;9.108;2022-10-15T09:30:35;17.00;99.90
3086;DHT22;52812;48.960;9.108;2022-10-15T09:33:16;17.20;99.90
3086;DHT22;52812;48.960;9.108;2022-10-15T09:39:16;17.40;99.90
3086;DHT22;52812;48.960;9.108;2022-10-15T09:44:42;17.30;99.90
3086;DHT22;52812;48.960;9.108;2022-10-15T09:47:25;17.20;99.90
3086;DHT22;52812;48.960;9.108;2022-10-15T09:49:51;17.20;99.90
3086;DHT22;52812;48.960;9.108;2022-10-15T09:55:07;17.10;99.90
3086;DHT22;52812;48.960;9.108;2022-10-15T09:57:35;17.20;99.90
3086;DHT22;52812;48.960;9.108;2022-10-15T10:00:07;17.20;99.90
3086;DHT22;52812;48.960;9.108;2022-10-15T10:02:33;17.30;99.90
3086;DHT22;52812;48.960;9.108;2022-10-15T10:05:26;17.30;99.90
3086;DHT22;52812;48.960;9.108;2022-10-15T10:08:13;17.40;99.90
3086;DHT22;52812;48.960;9.108;2022-10-15T10:10:43;17.50;99.90
3086;DHT22;52812;48.960;9.108;2022-10-15T10:13:22;17.60;99.90
3086;DHT22;52812;48.960;9.108;2022-10-15T10:15:51;17.70;99.90
3086;DHT22;52812;48.960;9.108;2022-10-15T10:18:19;17.90;99.90
3086;DHT22;52812;48.960;9.108;2022-10-15T10:20:56;18.10;99.90
3086;DHT22;52812;48.960;9.108;2022-10-15T10:23:31;18.40;99.90
3086;DHT22;52812;48.960;9.108;2022-10-15T10:26:08;18.40;99.90
3086;DHT22;52812;48.960;9.108;2022-10-15T10:28:50;18.30;99.90
3086;DHT22;52812;48.960;9.108;2022-10-15T10:31:16;18.40;99.90
3086;DHT22;52812;48.960;9.108;2022-10-15T10:33:48;18.60;99.90
3086;DHT22;52812;48.960;9.108;2022-10-15T10:36:24;18.90;99.90
3086;DHT22;52812;48.960;9.108;2022-10-15T10:39:09;19.00;99.90
3086;DHT22;52812;48.960;9.108;2022-10-15T10:42:00;19.00;99.90
3086;DHT22;52812;48.960;9.108;2022-10-15T10:44:39;19.10;99.90
3086;DHT22;52812;48.960;9.108;2022-10-15T10:52:05;19.10;99.90
3086;DHT22;52812;48.960;9.108;2022-10-15T10:54:31;19.00;99.90
3086;DHT22;52812;48.960;9.108;2022-10-15T10:56:59;18.90;99.90
3086;DHT22;52812;48.960;9.108;2022-10-15T10:59:33;19.00;99.90
3086;DHT22;52812;48.960;9.108;2022-10-15T11:01:59;19.00;99.90
3086;DHT22;52812;48.960;9.108;2022-10-15T11:04:29;18.80;99.90
3086;DHT22;52812;48.960;9.108;2022-10-15T11:07:03;18.90;99.90
3086;DHT22;52812;48.960;9.108;2022-10-15T11:12:06;18.90;99.90
3086;DHT22;52812;48.960;9.108;2022-10-15T11:17:35;19.00;99.90
3086;DHT22;52812;48.960;9.108;2022-10-15T11:20:27;19.20;99.90
3086;DHT22;52812;48.960;9.108;2022-10-15T11:23:18;19.40;99.90
3086;DHT22;52812;48.960;9.108;2022-10-15T11:28:35;19.40;99.90
3086;DHT22;52812;48.960;9.108;2022-10-15T11:31:35;19.40;99.90
3086;DHT22;52812;48.960;9.108;2022-10-15T11:42:05;19.30;99.90
3086;DHT22;52812;48.960;9.108;2022-10-15T11:44:52;19.40;99.90
3086;DHT22;52812;48.960;9.108;2022-10-15T11:47:42;19.30;99.90
3086;DHT22;52812;48.960;9.108;2022-10-15T11:50:29;19.40;99.90
3086;DHT22;52812;48.960;9.108;2022-10-15T11:53:21;19.50;99.90
3086;DHT22;52812;48.960;9.108;2022-10-15T11:58:42;19.40;99.90
3086;DHT22;52812;48.960;9.108;2022-10-15T12:01:22;19.30;99.90
3086;DHT22;52812;48.960;9.108;2022-10-15T12:04:11;19.20;99.90
3086;DHT22;52812;48.960;9.108;2022-10-15T12:06:42;19.10;99.90
3086;DHT22;52812;48.960;9.108;2022-10-15T12:09:15;19.00;99.90
3086;DHT22;52812;48.960;9.108;2022-10-15T12:11:55;18.90;99.90
3086;DHT22;52812;48.960;9.108;2022-10-15T12:14:40;18.70;99.90
3086;DHT22;52812;48.960;9.108;2022-10-15T12:17:30;18.60;99.90
3086;DHT22;52812;48.960;9.108;2022-10-15T12:20:06;18.50;99.90
3086;DHT22;52812;48.960;9.108;2022-10-15T12:28:14;18.60;99.90
3086;DHT22;52812;48.960;9.108;2022-10-15T12:30:41;18.70;99.90
3086;DHT22;52812;48.960;9.108;2022-10-15T12:33:38;18.90;99.90
3086;DHT22;52812;48.960;9.108;2022-10-15T12:41:43;19.30;99.90
3086;DHT22;52812;48.960;9.108;2022-10-15T12:46:41;19.10;99.90
3086;DHT22;52812;48.960;9.108;2022-10-15T12:51:52;19.00;99.90
3086;DHT22;52812;48.960;9.108;2022-10-15T12:57:01;18.70;99.90
3086;DHT22;52812;48.960;9.108;2022-10-15T13:02:36;18.50;99.90
3086;DHT22;52812;48.960;9.108;2022-10-15T13:05:04;18.50;99.90
3086;DHT22;52812;48.960;9.108;2022-10-15T13:07:32;18.40;99.90
3086;DHT22;52812;48.960;9.108;2022-10-15T13:09:59;18.40;99.90
3086;DHT22;52812;48.960;9.108;2022-10-15T13:12:27;18.30;99.90
3086;DHT22;52812;48.960;9.108;2022-10-15T13:14:56;18.30;99.90
3086;DHT22;52812;48.960;9.108;2022-10-15T13:17:23;18.30;99.90
3086;DHT22;52812;48.960;9.108;2022-10-15T13:20:07;18.30;99.90
3086;DHT22;52812;48.960;9.108;2022-10-15T13:22:41;18.30;99.90
3086;DHT22;52812;48.960;9.108;2022-10-15T13:25:16;18.40;99.90
3086;DHT22;52812;48.960;9.108;2022-10-15T13:27:42;18.40;99.90
3086;DHT22;52812;48.960;9.108;2022-10-15T13:30:15;18.40;99.90
3086;DHT22;52812;48.960;9.108;2022-10-15T13:32:49;18.50;99.90
3086;DHT22;52812;48.960;9.108;2022-10-15T13:35:28;18.40;99.90
3086;DHT22;52812;48.960;9.108;2022-10-15T13:37:56;18.40;99.90
3086;DHT22;52812;48.960;9.108;2022-10-15T13:40:27;18.40;99.90
3086;DHT22;52812;48.960;9.108;2022-10-15T13:43:15;18.40;99.90
3086;DHT22;52812;48.960;9.108;2022-10-15T13:45:48;18.40;99.90
3086;DHT22;52812;48.960;9.108;2022-10-15T13:48:20;18.40;99.90
3086;DHT22;52812;48.960;9.108;2022-10-15T13:51:03;18.40;99.90
3086;DHT22;52812;48.960;9.108;2022-10-15T13:53:32;18.30;99.90
3086;DHT22;52812;48.960;9.108;2022-10-15T13:56:00;18.20;99.90
3086;DHT22;52812;48.960;9.108;2022-10-15T13:58:29;18.20;99.90
3086;DHT22;52812;48.960;9.108;2022-10-15T14:00:59;18.10;99.90
3086;DHT22;52812;48.960;9.108;2022-10-15T14:03:30;18.10;99.90
3086;DHT22;52812;48.960;9.108;2022-10-15T14:05:58;18.10;99.90
3086;DHT22;52812;48.960;9.108;2022-10-15T14:08:34;18.10;99.90
3086;DHT22;52812;48.960;9.108;2022-10-15T14:11:01;18.10;99.90
3086;DHT22;52812;48.960;9.108;2022-10-15T14:13:27;18.10;99.90
3086;DHT22;52812;48.960;9.108;2022-10-15T14:18:43;18.00;99.90
3086;DHT22;52812;48.960;9.108;2022-10-15T14:21:12;17.90;99.90
3086;DHT22;52812;48.960;9.108;2022-10-15T14:23:38;17.80;99.90
3086;DHT22;52812;48.960;9.108;2022-10-15T14:26:04;17.70;99.90
3086;DHT22;52812;48.960;9.108;2022-10-15T14:28:32;17.60;99.90
3086;DHT22;52812;48.960;9.108;2022-10-15T14:30:59;17.60;99.90
3086;DHT22;52812;48.960;9.108;2022-10-15T14:33:51;17.50;99.90
3086;DHT22;52812;48.960;9.108;2022-10-15T14:38:44;17.50;99.90
3086;DHT22;52812;48.960;9.108;2022-10-15T14:41:25;17.60;99.90
3086;DHT22;52812;48.960;9.108;2022-10-15T14:44:04;17.70;99.90
3086;DHT22;52812;48.960;9.108;2022-10-15T14:46:36;17.60;99.90
3086;DHT22;52812;48.960;9.108;2022-10-15T14:49:02;17.70;99.90
3086;DHT22;52812;48.960;9.108;2022-10-15T14:51:28;17.60;99.90
3086;DHT22;52812;48.960;9.108;2022-10-15T14:53:54;17.70;99.90
3086;DHT22;52812;48.960;9.108;2022-10-15T14:56:29;17.70;99.90
3086;DHT22;52812;48.960;9.108;2022-10-15T14:58:57;17.60;99.90
3086;DHT22;52812;48.960;9.108;2022-10-15T15:01:23;17.60;99.90
3086;DHT22;52812;48.960;9.108;2022-10-15T15:03:51;17.50;99.90
3086;DHT22;52812;48.960;9.108;2022-10-15T15:06:17;17.50;99.90
3086;DHT22;52812;48.960;9.108;2022-10-15T15:08:43;17.50;99.90
3086;DHT22;52812;48.960;9.108;2022-10-15T15:11:16;17.40;99.90
3086;DHT22;52812;48.960;9.108;2022-10-15T15:13:44;17.30;99.90
3086;DHT22;52812;48.960;9.108;2022-10-15T15:16:12;17.30;99.90
3086;DHT22;52812;48.960;9.108;2022-10-15T15:18:38;17.30;99.90
3086;DHT22;52812;48.960;9.108;2022-10-15T15:21:06;17.20;99.90
3086;DHT22;52812;48.960;9.108;2022-10-15T15:23:32;17.10;99.90
3086;DHT22;52812;48.960;9.108;2022-10-15T15:25:59;17.10;99.90
3086;DHT22;52812;48.960;9.108;2022-10-15T15:28:26;17.10;99.90
3086;DHT22;52812;48.960;9.108;2022-10-15T15:31:06;17.10;99.90
3086;DHT22;52812;48.960;9.108;2022-10-15T15:33:33;17.20;99.90
3086;DHT22;52812;48.960;9.108;2022-10-15T15:36:01;17.20;99.90
3086;DHT22;52812;48.960;9.108;2022-10-15T15:38:28;17.30;99.90
3086;DHT22;52812;48.960;9.108;2022-10-15T15:41:01;17.30;99.90
3086;DHT22;52812;48.960;9.108;2022-10-15T15:43:28;17.30;99.90
3086;DHT22;52812;48.960;9.108;2022-10-15T15:45:53;17.30;99.90
3086;DHT22;52812;48.960;9.108;2022-10-15T15:48:19;17.20;99.90
3086;DHT22;52812;48.960;9.108;2022-10-15T15:50:45;17.10;99.90
3086;DHT22;52812;48.960;9.108;2022-10-15T15:53:11;17.00;99.90
3086;DHT22;52812;48.960;9.108;2022-10-15T15:55:37;16.90;99.90
3086;DHT22;52812;48.960;9.108;2022-10-15T15:58:03;16.70;99.90
3086;DHT22;52812;48.960;9.108;2022-10-15T16:00:28;16.60;99.90
3086;DHT22;52812;48.960;9.108;2022-10-15T16:02:54;16.50;99.90
3086;DHT22;52812;48.960;9.108;2022-10-15T16:05:20;16.50;99.90
3086;DHT22;52812;48.960;9.108;2022-10-15T16:07:47;16.40;99.90
3086;DHT22;52812;48.960;9.108;2022-10-15T16:10:13;16.40;99.90
3086;DHT22;52812;48.960;9.108;2022-10-15T16:12:39;16.30;99.90
3086;DHT22;52812;48.960;9.108;2022-10-15T16:15:06;16.20;99.90
3086;DHT22;52812;48.960;9.108;2022-10-15T16:17:32;16.20;99.90
3086;DHT22;52812;48.960;9.108;2022-10-15T16:19:58;16.20;99.90
3086;DHT22;52812;48.960;9.108;2022-10-15T16:22:23;16.10;99.90
3086;DHT22;52812;48.960;9.108;2022-10-15T16:24:49;16.00;99.90
3086;DHT22;52812;48.960;9.108;2022-10-15T16:27:14;15.90;99.90
3086;DHT22;52812;48.960;9.108;2022-10-15T16:29:40;15.90;99.90
3086;DHT22;52812;48.960;9.108;2022-10-15T16:32:05;15.80;99.90
3086;DHT22;52812;48.960;9.108;2022-10-15T16:34:31;15.80;99.90
3086;DHT22;52812;48.960;9.108;2022-10-15T16:36:56;15.60;99.90
3086;DHT22;52812;48.960;9.108;2022-10-15T16:39:22;15.50;99.90
3086;DHT22;52812;48.960;9.108;2022-10-15T16:41:48;15.50;99.90
3086;DHT22;52812;48.960;9.108;2022-10-15T16:44:13;15.40;99.90
3086;DHT22;52812;48.960;9.108;2022-10-15T16:46:39;15.30;99.90
3086;DHT22;52812;48.960;9.108;2022-10-15T16:49:04;15.30;99.90
3086;DHT22;52812;48.960;9.108;2022-10-15T16:51:30;15.30;99.90
3086;DHT22;52812;48.960;9.108;2022-10-15T16:53:57;15.20;99.90
3086;DHT22;52812;48.960;9.108;2022-10-15T16:56:25;15.20;99.90
3086;DHT22;52812;48.960;9.108;2022-10-15T16:58:50;15.20;99.90
3086;DHT22;52812;48.960;9.108;2022-10-15T17:01:19;15.20;99.90
3086;DHT22;52812;48.960;9.108;2022-10-15T17:03:45;15.20;99.90
3086;DHT22;52812;48.960;9.108;2022-10-15T17:06:15;15.20;99.90
3086;DHT22;52812;48.960;9.108;2022-10-15T17:08:47;15.20;99.90
3086;DHT22;52812;48.960;9.108;2022-10-15T17:11:16;15.30;99.90
3086;DHT22;52812;48.960;9.108;2022-10-15T17:13:42;15.30;99.90
3086;DHT22;52812;48.960;9.108;2022-10-15T17:16:16;15.40;99.90
3086;DHT22;52812;48.960;9.108;2022-10-15T17:18:43;15.40;99.90
3086;DHT22;52812;48.960;9.108;2022-10-15T17:21:11;15.40;99.90
3086;DHT22;52812;48.960;9.108;2022-10-15T17:23:37;15.50;99.90
3086;DHT22;52812;48.960;9.108;2022-10-15T17:26:08;15.50;99.90